createdAt,value
2023-01-15T00:00:25.091Z,31.3
2023-01-15T00:05:25.099Z,36.4
2023-01-15T00:10:25.107Z,32.8
2023-01-15T00:15:25.106Z,31.7
2023-01-15T00:20:25.107Z,35
2023-01-15T00:25:25.103Z,35.2
2023-01-15T00:30:25.123Z,35.2
2023-01-15T00:35:25.101Z,40
2023-01-15T00:40:25.099Z,38.5
2023-01-15T00:45:25.105Z,36.4
2023-01-15T00:50:25.102Z,31.3
2023-01-15T00:55:25.103Z,35.7
2023-01-15T01:00:25.096Z,35
2023-01-15T01:05:25.100Z,33.9
2023-01-15T01:10:25.095Z,35
2023-01-15T01:15:25.098Z,35.9
2023-01-15T01:20:25.091Z,38
2023-01-15T01:25:25.094Z,35.9
2023-01-15T01:30:25.100Z,43
2023-01-15T01:35:25.091Z,39.4
2023-01-15T01:40:25.114Z,37.2
2023-01-15T01:45:25.211Z,33.9
2023-01-15T01:50:25.091Z,38.2
2023-01-15T01:55:25.103Z,38
2023-01-15T02:00:25.101Z,31
2023-01-15T02:05:25.097Z,29.5
2023-01-15T02:10:25.087Z,36.1
2023-01-15T02:15:25.104Z,32.5
2023-01-15T02:20:25.094Z,31.2
2023-01-15T02:25:25.099Z,28.6
2023-01-15T02:30:25.092Z,34.1
2023-01-15T02:35:25.097Z,32.5
2023-01-15T02:40:25.102Z,34.3
2023-01-15T02:45:25.193Z,38.8
2023-01-15T02:50:25.094Z,31.3
2023-01-15T02:55:25.098Z,31.9
2023-01-15T03:00:25.094Z,33.7
2023-01-15T03:05:25.211Z,31.7
2023-01-15T03:10:25.092Z,28.8
2023-01-15T03:15:25.207Z,30.6
2023-01-15T03:20:25.102Z,30.5
2023-01-15T03:25:25.115Z,28.2
2023-01-15T03:30:25.149Z,28.9
2023-01-15T03:35:25.099Z,24.6
2023-01-15T03:40:25.097Z,23.1
2023-01-15T03:45:25.106Z,26.9
2023-01-15T03:50:25.088Z,31
2023-01-15T03:55:25.118Z,30.8
2023-01-15T04:00:25.108Z,27.2
2023-01-15T04:05:25.163Z,23.8
2023-01-15T04:10:25.122Z,27
2023-01-15T04:15:25.137Z,22.4
2023-01-15T04:20:25.110Z,21.5
2023-01-15T04:25:25.143Z,25.9
2023-01-15T04:30:25.109Z,30.8
2023-01-15T04:35:25.124Z,22.5
2023-01-15T04:40:25.333Z,18.9
2023-01-15T04:45:25.113Z,25.8
2023-01-15T04:50:25.107Z,22.3
2023-01-15T04:55:25.131Z,24.4
2023-01-15T05:00:25.118Z,21.7
2023-01-15T05:05:25.128Z,15.3
2023-01-15T05:10:25.118Z,16.8
2023-01-15T05:15:25.114Z,15.8
2023-01-15T05:20:25.111Z,13.3
2023-01-15T05:25:25.088Z,15.5
2023-01-15T05:30:25.094Z,19.7
2023-01-15T05:35:25.105Z,20.2
2023-01-15T05:40:25.092Z,19.8
2023-01-15T05:45:25.101Z,15.1
2023-01-15T05:50:25.101Z,15.8
2023-01-15T05:55:25.321Z,31.3
2023-01-15T06:00:25.098Z,25.4
2023-01-15T06:05:25.112Z,19.1
2023-01-15T06:10:25.103Z,22.7
2023-01-15T06:15:25.102Z,25.2
2023-01-15T06:20:25.098Z,24.3
2023-01-15T06:25:25.105Z,21.5
2023-01-15T06:30:25.092Z,23.2
2023-01-15T06:35:25.120Z,18.1
2023-01-15T06:40:25.101Z,21.3
2023-01-15T06:45:25.129Z,15.9
2023-01-15T06:50:25.101Z,15.7
2023-01-15T06:55:25.112Z,17.5
2023-01-15T07:00:25.192Z,13.3
2023-01-15T07:05:25.088Z,13.5
2023-01-15T07:10:25.105Z,13.5
2023-01-15T07:15:25.095Z,16.2
2023-01-15T07:20:25.110Z,21.5
2023-01-15T07:25:25.112Z,15
2023-01-15T07:30:25.097Z,13.9
2023-01-15T07:35:25.098Z,9.4
2023-01-15T07:40:25.089Z,8.9
2023-01-15T07:45:25.156Z,11.3
2023-01-15T07:50:25.095Z,13.2
2023-01-15T07:55:25.110Z,17.1
2023-01-15T08:00:25.084Z,12.8
2023-01-15T08:05:25.090Z,12.1
2023-01-15T08:10:25.102Z,14.4
2023-01-15T08:15:25.093Z,13.6
2023-01-15T08:20:25.093Z,12.7
2023-01-15T08:25:25.120Z,13
2023-01-15T08:30:25.114Z,15.1
2023-01-15T08:35:25.097Z,13.2
2023-01-15T08:40:25.098Z,11.5
2023-01-15T08:45:25.089Z,18.9
2023-01-15T08:50:25.258Z,15
2023-01-15T08:55:25.090Z,10.1
2023-01-15T09:00:25.111Z,15.6
2023-01-15T09:05:25.100Z,9.5
2023-01-15T09:10:25.090Z,14.3
2023-01-15T09:15:25.095Z,18.7
2023-01-15T09:20:25.098Z,21
2023-01-15T09:25:25.097Z,17.3
2023-01-15T09:30:25.096Z,15.8
2023-01-15T09:35:25.107Z,16.9
2023-01-15T09:40:25.085Z,15.5
2023-01-15T09:45:25.093Z,18.5
2023-01-15T09:50:25.111Z,18.3
2023-01-15T09:55:25.092Z,13.8
2023-01-15T10:00:25.090Z,13.6
2023-01-15T10:05:25.091Z,12.8
2023-01-15T10:10:25.105Z,15.6
2023-01-15T10:15:25.095Z,14.6
2023-01-15T10:20:25.088Z,16.9
2023-01-15T10:25:25.088Z,17.4
2023-01-15T10:30:25.086Z,20.9
2023-01-15T10:35:25.104Z,12.7
2023-01-15T10:40:25.105Z,12.1
2023-01-15T10:45:25.091Z,15.4
2023-01-15T10:50:25.092Z,13.2
2023-01-15T10:55:25.094Z,13.9
2023-01-15T11:00:25.090Z,13.7
2023-01-15T11:05:25.096Z,13.2
2023-01-15T11:10:25.097Z,16.8
2023-01-15T11:15:25.093Z,18.1
2023-01-15T11:20:25.097Z,16.4
2023-01-15T11:25:25.090Z,16.7
2023-01-15T11:30:25.090Z,17.3
2023-01-15T11:35:25.097Z,20.4
2023-01-15T11:40:25.083Z,18.1
2023-01-15T11:45:25.092Z,14.2
2023-01-15T11:50:25.086Z,11
2023-01-15T11:55:25.091Z,15.3
2023-01-15T12:00:25.079Z,22.3
2023-01-15T12:05:25.091Z,17.1
2023-01-15T12:10:25.086Z,19.2
2023-01-15T12:15:25.086Z,21.7
2023-01-15T12:20:25.088Z,21.6
2023-01-15T12:25:25.116Z,23.2
2023-01-15T12:30:25.090Z,21.3
2023-01-15T12:35:25.106Z,27.8
2023-01-15T12:40:25.089Z,34.5
2023-01-15T12:45:25.095Z,29.2
2023-01-15T12:50:25.088Z,23.1
2023-01-15T12:55:25.091Z,33.9
2023-01-15T13:00:25.111Z,40.6
2023-01-15T13:05:25.100Z,33.2
2023-01-15T13:10:25.117Z,41.2
2023-01-15T13:15:25.091Z,27
2023-01-15T13:20:25.100Z,22.4
2023-01-15T13:25:26.482Z,20.4
2023-01-15T13:30:25.087Z,25.3
2023-01-15T13:35:25.089Z,25.3
2023-01-15T13:40:25.094Z,17.6
2023-01-15T13:45:25.127Z,19.8
2023-01-15T13:50:25.094Z,21.9
2023-01-15T13:55:25.102Z,20.6
2023-01-15T14:00:25.091Z,22.9
2023-01-15T14:05:25.088Z,31.5
2023-01-15T14:10:25.094Z,28
2023-01-15T15:00:25.097Z,36.6
2023-01-15T15:05:25.111Z,32.5
2023-01-15T15:10:25.104Z,23.7
2023-01-15T15:15:25.113Z,29.8
2023-01-15T15:20:25.101Z,24.5
2023-01-15T15:25:25.102Z,29.2
2023-01-15T15:30:25.121Z,25.8
2023-01-15T15:35:25.113Z,28.5
2023-01-15T15:40:25.097Z,27.6
2023-01-15T15:45:25.100Z,24.5
2023-01-15T15:50:25.104Z,24.5
2023-01-15T15:55:25.106Z,23.6
2023-01-15T16:00:25.102Z,22.5
2023-01-15T16:05:25.113Z,20.5
2023-01-15T16:10:25.318Z,22.6
2023-01-15T16:15:25.107Z,20.3
2023-01-15T16:20:25.107Z,26.1
2023-01-15T16:25:25.108Z,21
2023-01-15T16:30:25.096Z,23.7
2023-01-15T16:35:25.114Z,22.6
2023-01-15T16:40:25.096Z,23.4
2023-01-15T16:45:25.109Z,27
2023-01-15T16:50:25.106Z,30.3
2023-01-15T16:55:25.095Z,28.6
2023-01-15T17:00:25.096Z,32.1
2023-01-15T17:05:25.159Z,41.9
2023-01-15T17:10:25.123Z,29.4
2023-01-15T17:15:25.092Z,29.2
2023-01-15T17:20:25.099Z,25.8
2023-01-15T17:25:25.103Z,31.5
2023-01-15T17:30:25.096Z,25.2
2023-01-15T17:35:25.100Z,27.9
2023-01-15T17:40:25.094Z,24.5
2023-01-15T17:45:25.101Z,26.6
2023-01-15T17:50:25.123Z,26.5
2023-01-15T17:55:25.103Z,22
2023-01-15T18:00:25.096Z,25.8
2023-01-15T18:05:25.098Z,22
2023-01-15T18:10:25.090Z,25.2
2023-01-15T18:15:25.154Z,31
2023-01-15T18:20:25.097Z,18
2023-01-15T18:25:26.166Z,15.1
2023-01-15T18:30:25.079Z,19
2023-01-15T18:35:25.097Z,17.3
2023-01-15T18:40:25.087Z,16.1
2023-01-15T18:45:25.100Z,17.9
2023-01-15T18:50:25.104Z,14.2
2023-01-15T18:55:25.095Z,18.2
2023-01-15T19:00:25.222Z,18.9
2023-01-15T19:05:25.107Z,18.7
2023-01-15T19:10:25.102Z,24.7
2023-01-15T19:15:25.112Z,26.3
2023-01-15T19:20:25.115Z,21.8
2023-01-15T19:25:25.109Z,30.8
2023-01-15T19:30:25.121Z,29.2
2023-01-15T19:35:25.120Z,28
2023-01-15T19:40:25.132Z,31.3
2023-01-15T19:45:25.116Z,22.8
2023-01-15T19:50:25.125Z,24.4
2023-01-15T19:55:25.143Z,26.5
2023-01-15T20:00:25.113Z,27.5
2023-01-15T20:05:25.114Z,31.5
2023-01-15T20:10:25.099Z,32.5
2023-01-15T20:15:25.107Z,32.8
2023-01-15T20:20:25.096Z,24.6
2023-01-15T20:25:25.102Z,25.4
2023-01-15T20:30:25.099Z,24.6
2023-01-15T20:35:25.107Z,28
2023-01-15T20:40:25.102Z,30.3
2023-01-15T20:45:25.333Z,23.9
2023-01-15T20:50:25.096Z,31.5
2023-01-15T20:55:25.103Z,29.2
2023-01-15T21:00:25.099Z,28.3
2023-01-15T21:05:25.091Z,28.6
2023-01-15T21:10:25.102Z,29.2
2023-01-15T21:15:25.103Z,24.1
2023-01-15T21:20:25.113Z,25.9
2023-01-15T21:25:25.103Z,25.9
2023-01-15T21:30:25.102Z,21.6
2023-01-15T21:35:25.110Z,23.9
2023-01-15T21:40:25.100Z,26.7
2023-01-15T21:45:25.105Z,24.5
2023-01-15T21:50:25.095Z,23.6
2023-01-15T21:55:25.097Z,24.8
2023-01-15T22:00:25.102Z,25.8
2023-01-15T22:05:25.092Z,24.8
2023-01-15T22:10:25.102Z,26.9
2023-01-15T22:15:25.092Z,32.5
2023-01-15T22:20:25.105Z,36.4
2023-01-15T22:25:25.095Z,33.4
2023-01-15T22:30:25.097Z,29.8
2023-01-15T22:35:25.098Z,30.5
2023-01-15T22:40:25.108Z,23.5
2023-01-15T22:45:25.102Z,23
2023-01-15T22:50:25.096Z,23.6
2023-01-15T22:55:25.108Z,25
2023-01-15T23:00:25.098Z,22.9
2023-01-15T23:05:25.105Z,21.5
2023-01-15T23:10:25.094Z,21.3
2023-01-15T23:15:25.159Z,23.4
2023-01-15T23:20:25.115Z,22.5
2023-01-15T23:25:25.100Z,27.6
2023-01-15T23:30:25.099Z,23.8
2023-01-15T23:35:25.099Z,22.8
2023-01-15T23:40:25.310Z,25.1
2023-01-15T23:45:25.137Z,26.7
2023-01-15T23:50:25.093Z,26.3
2023-01-15T23:55:25.095Z,25
